Řízení letového provozu České republiky
Letiste: LKLN Aktualizace: 27.03.2017 12:06:05  UTC
 METAR LKLN 27.03. 12:00 ...
METAR LKLN 271200Z AUTO 14005KT 090V230 CAVOK 14/M03 Q1026=